Time;durP1;ratioP1;P1;durP2;ratioP2;P2;SDS_P1;SDS_P2;PMS_P1;PMS_P2;Temp;Humidity;BMP_temperature;BMP_pressure;BME280_temperature;BME280_humidity;BME280_pressure;Samples;Min_cycle;Max_cycle;Signal;HPM_P1;HPM_P2
2024/04/23 00:01:54;;;;;;;7.57;5.70;;;3.10;99.90;;;;;;5283743;27;20470;-67
2024/04/23 00:04:20;;;;;;;5.23;4.70;;;3.10;99.90;;;;;;5294183;27;21009;-68
2024/04/23 00:07:00;;;;;;;7.13;6.37;;;3.00;99.90;;;;;;5284614;26;20224;-67
2024/04/23 00:09:26;;;;;;;5.50;4.90;;;3.00;99.90;;;;;;5310944;27;20226;-68
2024/04/23 00:11:52;;;;;;;5.17;4.70;;;3.00;99.90;;;;;;5301905;26;20541;-68
2024/04/23 00:14:17;;;;;;;5.20;4.70;;;2.90;99.90;;;;;;5294664;27;20457;-68
2024/04/23 00:16:55;;;;;;;5.70;5.10;;;2.90;99.90;;;;;;5296823;27;20582;-68
2024/04/23 00:19:20;;;;;;;5.60;5.10;;;2.90;99.90;;;;;;5278515;27;20249;-69
2024/04/23 00:21:46;;;;;;;6.13;5.53;;;2.90;99.90;;;;;;5287038;27;20471;-68
2024/04/23 00:24:11;;;;;;;6.60;4.80;;;2.90;99.90;;;;;;5297730;27;20226;-67
2024/04/23 00:26:38;;;;;;;6.30;5.43;;;2.90;99.90;;;;;;5302444;27;20344;-68
2024/04/23 00:29:03;;;;;;;5.70;5.20;;;2.90;99.90;;;;;;5284276;27;20311;-68
2024/04/23 00:31:29;;;;;;;5.87;5.27;;;2.80;99.90;;;;;;5282178;27;20478;-68
2024/04/23 00:33:54;;;;;;;6.70;5.70;;;2.80;99.90;;;;;;5279320;26;20227;-68
2024/04/23 00:36:20;;;;;;;6.20;5.03;;;2.70;99.90;;;;;;5287565;27;20222;-69
2024/04/23 00:38:45;;;;;;;5.87;5.27;;;2.70;99.90;;;;;;5301128;26;20293;-69
2024/04/23 00:41:11;;;;;;;6.30;5.70;;;2.80;99.90;;;;;;5301831;26;20848;-66
2024/04/23 00:43:36;;;;;;;7.50;5.17;;;2.70;99.90;;;;;;5291362;27;20272;-69
2024/04/23 00:46:05;;;;;;;7.03;5.33;;;2.70;99.90;;;;;;5298599;26;20282;-68
2024/04/23 00:48:32;;;;;;;7.20;5.83;;;2.60;99.90;;;;;;5293384;26;20227;-68
2024/04/23 00:50:58;;;;;;;6.43;5.03;;;2.50;99.90;;;;;;5292578;27;20466;-68
2024/04/23 00:53:23;;;;;;;8.43;5.80;;;2.50;99.90;;;;;;5279039;27;20518;-69
2024/04/23 00:55:49;;;;;;;6.07;5.33;;;2.50;99.90;;;;;;5280622;27;21215;-68
2024/04/23 00:58:15;;;;;;;6.37;5.73;;;2.40;99.90;;;;;;5284247;27;20231;-68
2024/04/23 01:00:41;;;;;;;6.53;5.30;;;2.40;99.90;;;;;;5292835;27;20231;-67
2024/04/23 01:03:06;;;;;;;8.80;5.10;;;2.40;99.90;;;;;;5280660;27;21013;-69
2024/04/23 01:05:32;;;;;;;6.57;5.90;;;2.40;99.90;;;;;;5282175;27;20222;-68
2024/04/23 01:07:58;;;;;;;5.70;5.10;;;2.30;99.90;;;;;;5286954;27;20231;-68
2024/04/23 01:10:23;;;;;;;6.53;5.83;;;2.30;99.90;;;;;;5281032;27;20224;-69
2024/04/23 01:12:49;;;;;;;6.17;5.57;;;2.30;99.90;;;;;;5280507;27;20341;-68
2024/04/23 01:15:16;;;;;;;6.43;5.83;;;2.30;99.90;;;;;;5286721;27;20261;-68
2024/04/23 01:17:44;;;;;;;5.80;5.20;;;2.30;99.90;;;;;;5286721;27;20271;-68
2024/04/23 01:20:13;;;;;;;6.20;5.60;;;2.20;99.90;;;;;;5296041;27;20469;-68
2024/04/23 01:23:03;;;;;;;5.80;5.20;;;2.20;99.90;;;;;;5285876;27;20529;-68
2024/04/23 01:25:29;;;;;;;7.00;6.00;;;2.20;99.90;;;;;;5296358;27;20516;-67
2024/04/23 01:27:56;;;;;;;7.00;5.47;;;2.20;99.90;;;;;;5279338;26;20853;-68
2024/04/23 01:30:23;;;;;;;8.33;5.87;;;2.10;99.90;;;;;;5296317;26;20219;-69
2024/04/23 01:32:49;;;;;;;8.03;6.80;;;2.10;99.90;;;;;;5300371;27;20520;-68
2024/04/23 01:35:17;;;;;;;6.53;5.87;;;2.00;99.90;;;;;;5299520;26;20904;-68
2024/04/23 01:37:46;;;;;;;6.87;5.47;;;2.00;99.90;;;;;;5284052;27;20516;-68
2024/04/23 01:40:12;;;;;;;6.03;5.43;;;2.00;99.90;;;;;;5285810;26;20530;-67
2024/04/23 01:42:39;;;;;;;6.60;5.37;;;2.00;99.90;;;;;;5282460;27;21053;-67
2024/04/23 01:45:06;;;;;;;7.87;5.70;;;1.90;99.90;;;;;;5296880;26;20579;-68
2024/04/23 01:47:32;;;;;;;8.00;5.40;;;1.90;99.90;;;;;;5293585;26;20923;-69
2024/04/23 01:49:58;;;;;;;7.00;6.13;;;1.80;99.90;;;;;;5280130;27;20518;-69
2024/04/23 01:52:24;;;;;;;5.53;5.00;;;1.80;99.90;;;;;;5284733;27;20809;-69
2024/04/23 01:54:50;;;;;;;6.87;5.80;;;1.80;99.90;;;;;;5301332;27;20707;-68
2024/04/23 01:57:15;;;;;;;6.63;6.00;;;1.70;99.90;;;;;;5300177;26;20336;-67
2024/04/23 01:59:51;;;;;;;6.70;5.77;;;1.80;99.90;;;;;;5289177;22;20625;-69
2024/04/23 02:02:18;;;;;;;9.90;5.90;;;1.70;99.90;;;;;;5277831;27;20227;-67
2024/04/23 02:04:44;;;;;;;6.23;5.63;;;1.70;99.90;;;;;;5299998;27;20580;-68
2024/04/23 02:07:11;;;;;;;6.57;5.63;;;1.70;99.90;;;;;;5275909;27;21348;-68
2024/04/23 02:09:37;;;;;;;6.87;6.00;;;1.70;99.90;;;;;;5273017;27;20475;-69
2024/04/23 02:12:03;;;;;;;6.83;6.17;;;1.70;99.90;;;;;;5249390;27;20464;-68
2024/04/23 02:14:29;;;;;;;7.00;6.40;;;1.70;99.90;;;;;;5267216;27;20466;-67
2024/04/23 02:16:56;;;;;;;6.57;5.90;;;1.80;99.90;;;;;;5246859;27;20484;-67
2024/04/23 02:19:21;;;;;;;8.00;7.30;;;1.70;99.90;;;;;;5250128;27;20520;-67
2024/04/23 02:21:47;;;;;;;7.30;6.37;;;1.60;99.90;;;;;;5244323;27;20464;-69
2024/04/23 02:24:12;;;;;;;6.63;6.00;;;1.60;99.90;;;;;;5261089;27;20756;-69
2024/04/23 02:26:38;;;;;;;7.40;6.70;;;1.70;99.90;;;;;;5260677;27;20341;-68
2024/04/23 02:29:03;;;;;;;8.23;6.80;;;1.70;99.90;;;;;;5246887;27;20335;-69
2024/04/23 02:31:29;;;;;;;8.30;6.63;;;1.70;99.90;;;;;;5251291;27;20236;-69
2024/04/23 02:33:54;;;;;;;6.73;6.13;;;1.70;99.90;;;;;;5247177;27;20248;-69
2024/04/23 02:36:20;;;;;;;7.90;7.10;;;1.70;99.90;;;;;;5250879;27;20220;-68
2024/04/23 02:38:45;;;;;;;7.30;6.50;;;1.70;99.90;;;;;;5256222;27;20232;-68
2024/04/23 02:41:10;;;;;;;6.67;5.90;;;1.70;99.90;;;;;;5261519;27;20235;-69
2024/04/23 02:43:36;;;;;;;7.33;6.50;;;1.70;99.90;;;;;;5256408;27;20358;-67
2024/04/23 02:46:01;;;;;;;9.00;6.00;;;1.60;99.90;;;;;;5262729;27;20246;-68
2024/04/23 02:48:27;;;;;;;6.30;5.80;;;1.60;99.90;;;;;;5247215;27;20865;-69
2024/04/23 02:50:52;;;;;;;9.00;7.20;;;1.60;99.90;;;;;;5244312;27;20229;-68
2024/04/23 02:53:18;;;;;;;7.13;6.43;;;1.60;99.90;;;;;;5245712;27;20264;-69
2024/04/23 02:55:43;;;;;;;7.13;6.43;;;1.60;99.90;;;;;;5259079;27;20224;-68
2024/04/23 02:58:09;;;;;;;7.60;6.67;;;1.50;99.90;;;;;;5247313;27;20228;-69
2024/04/23 03:00:34;;;;;;;9.20;7.57;;;1.50;99.90;;;;;;5246343;27;20714;-68
2024/04/23 03:03:00;;;;;;;7.50;6.60;;;1.50;99.90;;;;;;5251460;27;20765;-68
2024/04/23 03:05:25;;;;;;;9.63;8.03;;;1.40;99.90;;;;;;5262047;27;20278;-67
2024/04/23 03:07:51;;;;;;;8.83;6.73;;;1.40;99.90;;;;;;5250291;27;20284;-69
2024/04/23 03:10:16;;;;;;;8.23;7.40;;;1.40;99.90;;;;;;5243309;27;20236;-69
2024/04/23 03:12:42;;;;;;;9.20;8.30;;;1.40;99.90;;;;;;5248613;27;20280;-68
2024/04/23 03:15:07;;;;;;;6.97;6.10;;;1.30;99.90;;;;;;5242969;27;20254;-68
2024/04/23 03:17:33;;;;;;;8.97;7.47;;;1.30;99.90;;;;;;5242735;27;20296;-69
2024/04/23 03:19:58;;;;;;;9.30;8.07;;;1.30;99.90;;;;;;5246856;27;20268;-69
2024/04/23 03:22:24;;;;;;;7.53;6.73;;;1.30;99.90;;;;;;5241921;27;20232;-68
2024/04/23 03:24:49;;;;;;;7.30;6.50;;;1.30;99.90;;;;;;5243105;27;20277;-68
2024/04/23 03:27:15;;;;;;;7.67;6.50;;;1.20;99.90;;;;;;5259867;27;20231;-69
2024/04/23 03:29:41;;;;;;;8.20;7.40;;;1.20;99.90;;;;;;5265598;27;20256;-69
2024/04/23 03:32:06;;;;;;;8.83;7.03;;;1.10;99.90;;;;;;5247109;27;20702;-68
2024/04/23 03:34:32;;;;;;;9.87;6.70;;;1.10;99.90;;;;;;5243587;27;20272;-67
2024/04/23 03:36:57;;;;;;;9.20;8.03;;;1.00;99.90;;;;;;5250192;27;20240;-68
2024/04/23 03:39:23;;;;;;;9.63;8.00;;;1.10;99.90;;;;;;5249956;27;20299;-69
2024/04/23 03:41:59;;;;;;;8.80;7.10;;;1.10;99.90;;;;;;5261082;27;20235;-67
2024/04/23 03:44:26;;;;;;;8.07;6.90;;;1.10;99.90;;;;;;5262284;27;20571;-69
2024/04/23 03:46:52;;;;;;;11.53;8.00;;;1.10;99.90;;;;;;5264984;27;20570;-68
2024/04/23 03:49:18;;;;;;;8.20;6.70;;;1.10;99.90;;;;;;5247211;27;20475;-67
2024/04/23 03:51:43;;;;;;;9.97;7.60;;;1.10;99.90;;;;;;5249073;27;20285;-68
2024/04/23 03:54:09;;;;;;;11.30;7.90;;;1.10;99.90;;;;;;5246921;27;20278;-68
2024/04/23 03:56:34;;;;;;;10.33;7.77;;;1.10;99.90;;;;;;5260878;27;20290;-66
2024/04/23 03:59:00;;;;;;;9.60;8.47;;;1.00;99.90;;;;;;5251753;27;20238;-67
2024/04/23 04:01:25;;;;;;;9.07;7.90;;;1.00;99.90;;;;;;5255624;27;20349;-67
2024/04/23 04:06:35;;;;;;;10.43;8.97;;;0.90;99.90;;;;;;5247665;27;20267;-68
2024/04/23 04:09:00;;;;;;;10.30;8.20;;;0.90;99.90;;;;;;5270754;27;20478;-67
2024/04/23 04:11:31;;;;;;;8.73;7.83;;;0.90;99.90;;;;;;5250926;27;20271;-67
2024/04/23 04:13:58;;;;;;;11.33;8.57;;;0.90;99.90;;;;;;5264200;27;20257;-70
2024/04/23 04:16:23;;;;;;;10.40;8.00;;;0.80;99.90;;;;;;5268004;27;20511;-66
2024/04/23 04:18:49;;;;;;;13.13;7.53;;;0.80;99.90;;;;;;5251388;27;20458;-67
2024/04/23 04:21:15;;;;;;;10.00;8.77;;;0.80;99.90;;;;;;5253354;27;20343;-66
2024/04/23 04:23:40;;;;;;;11.27;7.77;;;0.80;99.90;;;;;;5244100;27;20997;-67
2024/04/23 04:26:10;;;;;;;10.57;9.30;;;0.80;99.90;;;;;;5244546;27;20259;-67
2024/04/23 04:28:36;;;;;;;10.57;7.43;;;0.90;99.90;;;;;;5244351;27;20240;-67
2024/04/23 04:31:01;;;;;;;14.00;8.77;;;0.90;99.90;;;;;;5243968;27;20524;-67
2024/04/23 04:33:27;;;;;;;11.30;7.57;;;0.80;99.90;;;;;;5244209;27;20832;-69
2024/04/23 04:35:52;;;;;;;11.40;8.67;;;0.90;99.90;;;;;;5242433;27;20329;-69
2024/04/23 04:38:18;;;;;;;12.27;7.80;;;0.90;99.90;;;;;;5243997;27;20702;-69
2024/04/23 04:40:43;;;;;;;10.40;8.37;;;0.90;99.90;;;;;;5243900;27;20270;-68
2024/04/23 04:43:09;;;;;;;12.70;9.20;;;1.00;99.90;;;;;;5242849;27;20240;-69
2024/04/23 04:45:34;;;;;;;9.73;8.53;;;1.10;99.90;;;;;;5246580;27;20220;-68
2024/04/23 04:48:00;;;;;;;8.80;8.00;;;1.20;99.90;;;;;;5250354;27;20231;-68
2024/04/23 04:50:25;;;;;;;11.00;8.80;;;1.30;99.90;;;;;;5243601;27;20228;-68
2024/04/23 04:52:51;;;;;;;8.97;8.00;;;1.40;99.90;;;;;;5264471;27;20274;-69
2024/04/23 04:55:16;;;;;;;14.73;8.23;;;1.30;99.90;;;;;;5249266;27;20262;-69
2024/04/23 04:57:42;;;;;;;11.80;8.20;;;1.40;99.90;;;;;;5257692;27;20844;-68
2024/04/23 05:00:08;;;;;;;13.40;8.93;;;1.50;99.90;;;;;;5243879;27;20224;-70
2024/04/23 05:02:33;;;;;;;9.87;8.43;;;1.60;99.90;;;;;;5243102;27;20228;-69
2024/04/23 05:04:59;;;;;;;10.13;7.60;;;1.80;99.90;;;;;;5244363;27;20224;-70
2024/04/23 05:07:24;;;;;;;10.00;8.97;;;1.90;99.90;;;;;;5245887;27;20359;-68
2024/04/23 05:09:50;;;;;;;10.07;8.53;;;2.00;99.90;;;;;;5243353;27;20575;-69
2024/04/23 05:12:16;;;;;;;9.33;8.40;;;2.20;99.90;;;;;;5244056;27;20276;-69
2024/04/23 05:14:41;;;;;;;9.73;8.70;;;2.40;99.90;;;;;;5243413;27;20225;-73
2024/04/23 05:17:07;;;;;;;12.13;9.20;;;2.50;99.90;;;;;;5270424;27;20231;-68
2024/04/23 05:19:32;;;;;;;10.00;7.93;;;2.70;99.90;;;;;;5246713;27;20275;-70
2024/04/23 05:21:58;;;;;;;10.67;9.53;;;2.80;99.90;;;;;;5257733;27;20233;-69
2024/04/23 05:24:23;;;;;;;12.47;10.57;;;2.90;99.90;;;;;;5249950;27;20232;-70
2024/04/23 05:26:49;;;;;;;14.43;10.10;;;3.10;99.90;;;;;;5248099;27;20685;-69
2024/04/23 05:29:14;;;;;;;12.57;9.17;;;3.10;99.90;;;;;;5277496;27;20231;-69
2024/04/23 05:34:24;;;;;;;10.57;8.73;;;3.30;99.90;;;;;;5243755;27;20304;-69
2024/04/23 05:36:50;;;;;;;10.07;7.40;;;3.50;99.90;;;;;;5243189;27;20456;-70
2024/04/23 05:39:15;;;;;;;9.33;8.10;;;3.60;99.90;;;;;;5244567;27;20232;-69
2024/04/23 05:41:41;;;;;;;9.83;8.00;;;3.50;99.90;;;;;;5243188;27;20764;-68
2024/04/23 05:44:06;;;;;;;9.53;7.60;;;3.60;99.90;;;;;;5243741;27;20795;-69
2024/04/23 05:46:32;;;;;;;10.10;8.13;;;3.70;99.90;;;;;;5242914;27;20732;-69
2024/04/23 05:49:36;;;;;;;8.83;7.93;;;3.90;99.90;;;;;;5245718;27;20220;-68
2024/04/23 05:52:39;;;;;;;8.07;7.27;;;4.10;99.90;;;;;;5244448;27;20224;-69
2024/04/23 05:55:38;;;;;;;8.60;7.83;;;4.30;99.90;;;;;;5228211;27;20597;-68
2024/04/23 05:58:04;;;;;;;8.03;7.23;;;4.40;99.90;;;;;;5242967;27;20519;-68
2024/04/23 06:00:29;;;;;;;9.30;8.00;;;4.40;99.90;;;;;;5243156;27;20463;-68
2024/04/23 06:02:55;;;;;;;10.70;8.43;;;4.40;99.90;;;;;;5243346;27;20468;-67
2024/04/23 06:05:21;;;;;;;9.07;8.17;;;4.40;99.90;;;;;;5242956;27;20224;-69
2024/04/23 06:07:46;;;;;;;8.70;7.60;;;4.50;99.90;;;;;;5243857;27;20232;-69
2024/04/23 06:10:12;;;;;;;7.80;7.10;;;4.70;99.90;;;;;;5245127;27;20228;-69
2024/04/23 06:12:37;;;;;;;7.50;6.77;;;4.90;99.90;;;;;;5243137;27;20784;-70
2024/04/23 06:15:03;;;;;;;7.93;7.13;;;5.10;99.90;;;;;;5243080;27;20228;-69
2024/04/23 06:17:34;;;;;;;8.00;7.20;;;5.20;99.90;;;;;;5243225;27;20682;-69
2024/04/23 06:20:00;;;;;;;8.43;7.63;;;5.20;99.90;;;;;;5242899;27;20270;-70
2024/04/23 06:22:28;;;;;;;7.53;6.83;;;5.30;99.90;;;;;;5243024;27;20875;-70
2024/04/23 06:24:55;;;;;;;7.90;7.20;;;5.40;99.90;;;;;;5242603;27;20456;-70
2024/04/23 06:27:24;;;;;;;8.10;7.30;;;5.30;99.90;;;;;;5242330;27;20528;-70
2024/04/23 06:29:54;;;;;;;11.43;7.67;;;5.40;99.90;;;;;;5242941;27;20471;-70
2024/04/23 06:32:23;;;;;;;14.70;7.70;;;5.40;99.90;;;;;;5242817;27;20859;-69
2024/04/23 06:34:49;;;;;;;8.30;6.90;;;5.50;99.90;;;;;;5243119;27;20455;-70
2024/04/23 06:37:15;;;;;;;6.97;6.47;;;5.70;99.90;;;;;;5242254;27;20460;-69
2024/04/23 06:39:42;;;;;;;8.00;7.20;;;6.00;99.90;;;;;;5242601;27;20604;-69
2024/04/23 06:42:08;;;;;;;7.30;6.47;;;6.10;99.90;;;;;;5242888;27;20516;-69
2024/04/23 06:44:33;;;;;;;7.50;6.80;;;6.30;99.90;;;;;;5242697;27;20451;-69
2024/04/23 06:46:59;;;;;;;8.70;7.40;;;6.40;99.90;;;;;;5242510;27;20714;-69
2024/04/23 06:49:25;;;;;;;7.80;7.00;;;6.40;99.90;;;;;;5242808;27;20220;-69
2024/04/23 06:51:51;;;;;;;7.77;7.07;;;6.50;99.90;;;;;;5242081;27;20236;-70
2024/04/23 06:54:16;;;;;;;8.67;7.50;;;6.70;99.90;;;;;;5242713;27;21050;-69
2024/04/23 06:56:42;;;;;;;8.63;7.83;;;6.70;99.90;;;;;;5242492;27;20448;-69
2024/04/23 06:59:08;;;;;;;7.17;6.47;;;6.60;99.90;;;;;;5242169;27;20347;-69
2024/04/23 07:01:33;;;;;;;8.03;7.30;;;6.80;99.90;;;;;;5242183;27;20815;-70
2024/04/23 07:03:59;;;;;;;8.63;7.50;;;6.90;99.90;;;;;;5242610;27;20689;-70
2024/04/23 07:06:25;;;;;;;9.20;8.30;;;6.90;99.90;;;;;;5242102;27;20278;-69
2024/04/23 07:08:51;;;;;;;7.60;6.73;;;7.00;99.90;;;;;;5241797;27;20228;-69
2024/04/23 07:11:17;;;;;;;10.27;8.00;;;7.10;99.90;;;;;;5242313;27;20706;-69
2024/04/23 07:13:45;;;;;;;8.60;7.80;;;7.30;99.90;;;;;;5242014;27;20471;-68
2024/04/23 07:16:11;;;;;;;8.70;7.93;;;7.40;99.90;;;;;;5242547;27;20208;-69
2024/04/23 07:18:37;;;;;;;10.03;8.90;;;7.40;99.90;;;;;;5243530;27;20993;-69
2024/04/23 07:21:02;;;;;;;8.53;7.50;;;7.50;99.90;;;;;;5245120;27;20456;-69
2024/04/23 07:23:28;;;;;;;10.87;8.10;;;7.60;99.90;;;;;;5245506;27;20217;-69
2024/04/23 07:25:53;;;;;;;8.73;7.80;;;7.60;99.90;;;;;;5245729;27;20773;-69
2024/04/23 07:28:19;;;;;;;8.87;8.00;;;7.80;99.90;;;;;;5245393;27;20310;-69
2024/04/23 07:30:44;;;;;;;10.20;9.03;;;7.90;99.90;;;;;;5244912;27;20232;-68
2024/04/23 07:33:10;;;;;;;9.27;8.47;;;8.10;99.90;;;;;;5245386;27;20221;-69
2024/04/23 07:35:37;;;;;;;8.10;7.30;;;8.40;99.90;;;;;;5245443;27;20260;-70
2024/04/23 07:38:07;;;;;;;8.03;7.23;;;8.40;99.90;;;;;;5244867;27;20729;-70
2024/04/23 07:40:33;;;;;;;9.17;7.83;;;8.50;99.90;;;;;;5245293;27;20468;-69
2024/04/23 07:42:58;;;;;;;8.70;7.90;;;8.70;99.90;;;;;;5245420;27;20971;-69
2024/04/23 07:45:24;;;;;;;9.33;8.43;;;8.80;99.90;;;;;;5243873;27;20251;-69
2024/04/23 07:47:49;;;;;;;8.90;8.00;;;9.00;99.90;;;;;;5244793;27;20335;-70
2024/04/23 07:50:15;;;;;;;9.83;8.53;;;9.10;99.90;;;;;;5245163;27;20596;-70
2024/04/23 07:52:40;;;;;;;9.73;8.73;;;9.20;99.90;;;;;;5244844;27;20271;-69
2024/04/23 07:55:06;;;;;;;12.90;7.90;;;9.10;99.90;;;;;;5245224;27;20840;-69
2024/04/23 07:57:31;;;;;;;8.10;7.30;;;9.20;99.90;;;;;;5245265;27;20216;-69
2024/04/23 07:59:57;;;;;;;7.80;7.00;;;9.10;99.90;;;;;;5244980;27;20224;-69
2024/04/23 08:02:22;;;;;;;10.10;6.87;;;9.10;99.90;;;;;;5245269;27;20212;-69
2024/04/23 08:04:48;;;;;;;9.80;8.23;;;9.40;99.90;;;;;;5245098;27;20255;-69
2024/04/23 08:07:13;;;;;;;7.77;7.07;;;9.40;98.30;;;;;;5244198;27;20267;-69
2024/04/23 08:09:39;;;;;;;12.33;7.40;;;9.70;98.70;;;;;;5244686;27;20276;-69
2024/04/23 08:12:04;;;;;;;12.13;7.97;;;9.80;97.30;;;;;;5244995;27;20224;-68
2024/04/23 08:14:30;;;;;;;8.73;7.83;;;9.90;96.90;;;;;;5245052;27;20728;-69
2024/04/23 08:16:56;;;;;;;8.03;7.37;;;10.00;95.80;;;;;;5244405;27;20745;-69
2024/04/23 08:19:21;;;;;;;8.10;7.17;;;10.20;95.80;;;;;;5244846;27;20228;-69
2024/04/23 08:21:47;;;;;;;7.87;7.20;;;10.30;95.10;;;;;;5244025;27;20347;-69
2024/04/23 08:24:12;;;;;;;8.30;7.47;;;10.30;94.10;;;;;;5244999;27;20272;-68
2024/04/23 08:26:38;;;;;;;8.43;7.63;;;10.20;94.20;;;;;;5244527;27;20361;-69
2024/04/23 08:29:03;;;;;;;7.90;7.20;;;10.30;93.10;;;;;;5244677;27;20228;-68
2024/04/23 08:31:29;;;;;;;9.47;8.60;;;10.40;93.50;;;;;;5243378;27;20702;-69
2024/04/23 08:33:55;;;;;;;8.83;7.50;;;10.70;93.70;;;;;;5244432;27;20221;-69
2024/04/23 08:36:21;;;;;;;8.67;7.77;;;11.00;92.20;;;;;;5244502;27;20220;-69
2024/04/23 08:38:46;;;;;;;8.60;7.80;;;11.00;90.10;;;;;;5243916;27;20588;-69
2024/04/23 08:41:20;;;;;;;9.73;7.80;;;11.00;90.80;;;;;;5244091;27;20781;-69
2024/04/23 08:44:13;;;;;;;9.27;8.30;;;11.10;90.00;;;;;;5244477;27;20208;-69
2024/04/23 08:46:41;;;;;;;7.83;7.03;;;11.20;90.20;;;;;;5244296;27;20497;-69
2024/04/23 08:49:08;;;;;;;8.53;7.73;;;11.60;87.40;;;;;;5244454;27;20464;-69
2024/04/23 08:51:34;;;;;;;9.80;8.80;;;11.80;86.40;;;;;;5244179;27;20500;-69
2024/04/23 08:54:00;;;;;;;9.10;8.30;;;11.80;85.70;;;;;;5243990;27;20468;-69
2024/04/23 08:56:32;;;;;;;8.87;7.97;;;12.10;85.20;;;;;;5244574;27;20897;-69
2024/04/23 08:59:01;;;;;;;9.67;7.60;;;12.00;81.80;;;;;;5244284;27;20228;-70
2024/04/23 09:01:38;;;;;;;8.27;7.47;;;11.90;78.90;;;;;;5243914;27;20464;-69
2024/04/23 09:04:03;;;;;;;8.23;7.53;;;12.10;78.90;;;;;;5244365;27;20459;-69
2024/04/23 09:06:29;;;;;;;8.50;7.73;;;12.20;78.40;;;;;;5243684;27;21068;-69
2024/04/23 09:08:58;;;;;;;9.70;7.47;;;12.30;75.00;;;;;;5243979;27;20300;-70
2024/04/23 09:11:27;;;;;;;8.43;7.73;;;12.50;73.60;;;;;;5244188;27;20564;-69
2024/04/23 09:13:54;;;;;;;8.53;7.83;;;12.40;71.80;;;;;;5242284;27;20576;-69
2024/04/23 09:16:20;;;;;;;8.07;7.10;;;12.40;71.10;;;;;;5244102;27;20807;-69
2024/04/23 09:18:47;;;;;;;8.00;7.40;;;12.50;69.90;;;;;;5243864;27;20566;-69
2024/04/23 09:21:14;;;;;;;8.53;7.73;;;12.90;69.80;;;;;;5243641;27;20330;-69
2024/04/23 09:23:39;;;;;;;7.57;6.97;;;13.40;66.30;;;;;;5242182;27;20580;-69
2024/04/23 09:26:06;;;;;;;9.53;7.60;;;13.60;66.20;;;;;;5243879;27;20448;-69
2024/04/23 09:28:33;;;;;;;7.67;6.80;;;14.20;60.80;;;;;;5243637;27;20279;-69
2024/04/23 09:30:59;;;;;;;10.20;9.33;;;14.40;58.10;;;;;;5242951;27;20464;-69
2024/04/23 09:33:27;;;;;;;8.20;7.50;;;14.70;57.50;;;;;;5244000;27;20569;-69
2024/04/23 09:36:09;;;;;;;9.10;7.13;;;14.90;54.30;;;;;;5243886;27;20523;-69
2024/04/23 09:38:39;;;;;;;9.17;8.33;;;15.20;53.50;;;;;;5243334;27;20532;-69
2024/04/23 09:41:05;;;;;;;8.87;8.17;;;15.50;52.00;;;;;;5243366;27;20515;-69
2024/04/23 09:43:32;;;;;;;8.60;7.90;;;16.10;49.70;;;;;;5243543;27;20463;-69
2024/04/23 09:45:57;;;;;;;9.60;8.80;;;16.00;46.70;;;;;;5243893;27;20451;-69
2024/04/23 09:48:34;;;;;;;9.07;8.23;;;15.20;46.50;;;;;;5243435;27;20495;-69
2024/04/23 09:51:03;;;;;;;7.90;7.33;;;15.30;46.20;;;;;;5243511;27;20526;-69
2024/04/23 09:53:31;;;;;;;8.23;7.43;;;15.50;44.80;;;;;;5243202;27;20585;-69
2024/04/23 09:56:01;;;;;;;8.73;7.93;;;16.10;44.20;;;;;;5243546;27;20460;-69
2024/04/23 09:58:26;;;;;;;9.30;8.60;;;17.10;42.70;;;;;;5243460;27;20514;-69
2024/04/23 10:00:55;;;;;;;8.73;7.33;;;18.20;39.80;;;;;;5242916;27;20460;-69
2024/04/23 10:03:23;;;;;;;10.00;8.90;;;17.90;38.60;;;;;;5243871;27;20224;-69
2024/04/23 10:05:50;;;;;;;8.90;8.00;;;18.10;37.30;;;;;;5243507;27;21090;-69
2024/04/23 10:08:32;;;;;;;12.53;10.70;;;18.40;34.50;;;;;;5242847;27;20571;-69
2024/04/23 10:10:59;;;;;;;8.10;7.47;;;18.60;33.90;;;;;;5243192;27;20836;-69
2024/04/23 10:13:46;;;;;;;9.37;8.57;;;18.90;33.10;;;;;;5243484;27;20447;-69
2024/04/23 10:16:19;;;;;;;7.77;7.27;;;17.40;32.70;;;;;;5242979;27;20539;-69
2024/04/23 10:18:59;;;;;;;8.00;7.27;;;16.30;35.30;;;;;;5243317;27;20523;-69
2024/04/23 10:21:28;;;;;;;8.30;7.70;;;16.40;36.10;;;;;;5243142;27;20451;-69
2024/04/23 10:23:56;;;;;;;7.50;6.83;;;16.30;36.00;;;;;;5242900;27;20467;-69
2024/04/23 10:26:23;;;;;;;7.60;7.10;;;16.60;37.00;;;;;;5243020;27;20905;-69
2024/04/23 10:28:50;;;;;;;8.03;7.33;;;16.70;36.70;;;;;;5242828;27;20468;-69
2024/04/23 10:31:17;;;;;;;6.90;6.40;;;17.10;35.10;;;;;;5242916;27;20459;-68
2024/04/23 10:33:46;;;;;;;7.50;6.90;;;18.80;31.20;;;;;;5243013;27;20500;-70
2024/04/23 10:36:12;;;;;;;8.57;7.80;;;18.90;31.20;;;;;;5242896;27;20443;-69
2024/04/23 10:38:42;;;;;;;8.03;7.33;;;18.90;30.50;;;;;;5242411;27;20821;-68
2024/04/23 10:41:10;;;;;;;8.03;7.43;;;17.40;32.00;;;;;;5242839;27;20459;-68
2024/04/23 10:43:36;;;;;;;7.73;7.13;;;16.40;35.00;;;;;;5242905;27;20447;-69
2024/04/23 10:46:01;;;;;;;7.73;7.03;;;15.60;36.00;;;;;;5242908;27;20896;-68
2024/04/23 10:48:27;;;;;;;12.40;7.90;;;15.90;36.00;;;;;;5242661;27;20299;-68
2024/04/23 10:50:53;;;;;;;8.90;8.20;;;16.70;33.30;;;;;;5242603;27;20220;-68
2024/04/23 10:53:19;;;;;;;7.13;6.60;;;15.70;33.50;;;;;;5243199;27;20266;-68
2024/04/23 10:55:51;;;;;;;7.57;7.00;;;16.20;34.20;;;;;;5245928;27;20448;-68
2024/04/23 10:58:19;;;;;;;7.87;7.27;;;15.70;34.00;;;;;;5245964;27;20216;-68
2024/04/23 11:00:45;;;;;;;7.00;6.47;;;16.00;34.40;;;;;;5245801;27;20586;-70
2024/04/23 11:03:17;;;;;;;7.20;6.60;;;17.60;31.80;;;;;;5246158;27;21000;-66
2024/04/23 11:05:47;;;;;;;7.77;6.97;;;20.50;29.00;;;;;;5245603;27;20797;-66
2024/04/23 11:08:22;;;;;;;7.57;6.87;;;22.40;25.30;;;;;;5245539;27;20887;-67
2024/04/23 11:10:51;;;;;;;6.60;6.00;;;21.80;24.30;;;;;;5245924;27;21125;-66
2024/04/23 11:13:36;;;;;;;6.67;6.17;;;20.40;24.30;;;;;;5245978;27;20499;-66
2024/04/23 11:16:13;;;;;;;7.40;6.80;;;18.40;25.50;;;;;;5245731;27;20449;-67
2024/04/23 11:18:50;;;;;;;8.67;6.60;;;17.60;26.20;;;;;;5245639;27;20483;-67
2024/04/23 11:21:27;;;;;;;7.67;6.60;;;19.10;25.50;;;;;;5245188;27;20979;-66
2024/04/23 11:23:53;;;;;;;8.33;6.60;;;20.80;23.50;;;;;;5245976;27;20536;-67
2024/04/23 11:26:22;;;;;;;6.53;6.13;;;19.70;23.00;;;;;;5245753;27;20500;-67
2024/04/23 11:28:49;;;;;;;6.90;6.20;;;18.60;24.50;;;;;;5245310;27;20471;-68
2024/04/23 11:31:15;;;;;;;7.03;6.33;;;19.70;24.70;;;;;;5245360;27;20467;-69
2024/04/23 11:33:41;;;;;;;6.53;6.10;;;20.90;23.90;;;;;;5245621;27;20567;-69
2024/04/23 11:36:08;;;;;;;6.50;5.90;;;19.90;24.20;;;;;;5244953;27;20590;-68
2024/04/23 11:38:43;;;;;;;7.00;6.37;;;18.30;24.60;;;;;;5245078;27;20337;-68
2024/04/23 11:41:14;;;;;;;10.20;8.20;;;16.80;26.00;;;;;;5245287;27;20447;-67
2024/04/23 11:43:43;;;;;;;7.40;6.73;;;15.70;27.00;;;;;;5245351;27;20455;-67
2024/04/23 11:46:18;;;;;;;8.27;7.57;;;15.00;28.20;;;;;;5245217;27;20447;-68
2024/04/23 11:48:44;;;;;;;7.23;6.67;;;16.10;28.50;;;;;;5244962;27;20467;-68
2024/04/23 11:51:13;;;;;;;6.50;5.90;;;19.20;25.40;;;;;;5244977;27;20504;-68
2024/04/23 11:53:39;;;;;;;6.50;6.10;;;21.40;22.30;;;;;;5244792;27;21137;-68
2024/04/23 11:56:05;;;;;;;7.83;7.13;;;21.00;22.00;;;;;;5244989;27;20475;-68
2024/04/23 11:58:31;;;;;;;8.87;7.97;;;19.90;22.30;;;;;;5244814;27;20251;-67
2024/04/23 12:00:56;;;;;;;7.43;6.77;;;18.50;23.00;;;;;;5244890;27;20451;-68
2024/04/23 12:03:23;;;;;;;7.63;6.93;;;17.20;25.10;;;;;;5245348;27;20334;-69
2024/04/23 12:05:49;;;;;;;8.93;8.03;;;16.00;26.50;;;;;;5243668;27;20216;-68
2024/04/23 12:08:15;;;;;;;8.90;7.30;;;15.30;27.90;;;;;;5244194;27;20576;-67
2024/04/23 12:10:43;;;;;;;8.20;7.50;;;14.80;28.60;;;;;;5244715;27;20232;-67
2024/04/23 12:13:16;;;;;;;8.13;7.43;;;14.80;28.70;;;;;;5245131;27;20563;-68
2024/04/23 12:15:41;;;;;;;8.77;7.80;;;15.10;28.50;;;;;;5244892;27;20511;-69
2024/04/23 12:18:07;;;;;;;6.90;6.30;;;14.90;28.40;;;;;;5244804;27;20455;-69
2024/04/23 12:20:33;;;;;;;8.10;7.40;;;14.90;29.00;;;;;;5244618;27;20246;-69
2024/04/23 12:23:12;;;;;;;8.50;7.80;;;16.60;29.00;;;;;;5244475;27;20646;-68
2024/04/23 12:25:40;;;;;;;6.53;6.13;;;17.60;26.60;;;;;;5244713;27;20215;-69
2024/04/23 12:28:05;;;;;;;7.43;6.80;;;17.70;25.00;;;;;;5244791;27;20447;-69
2024/04/23 12:30:31;;;;;;;7.20;6.47;;;16.70;26.50;;;;;;5244557;27;20794;-68
2024/04/23 12:33:10;;;;;;;7.37;6.70;;;17.00;26.60;;;;;;5244757;27;20220;-69
2024/04/23 12:35:36;;;;;;;7.30;6.80;;;16.90;26.20;;;;;;5244613;27;20263;-68
2024/04/23 12:38:01;;;;;;;7.70;7.10;;;16.60;26.80;;;;;;5242486;27;20514;-68
2024/04/23 12:40:27;;;;;;;7.97;6.73;;;15.70;27.20;;;;;;5244502;27;20653;-69
2024/04/23 12:42:55;;;;;;;6.70;6.20;;;15.30;28.00;;;;;;5242915;27;20223;-68
2024/04/23 12:45:20;;;;;;;8.00;7.30;;;15.00;28.80;;;;;;5244449;27;20549;-68
2024/04/23 12:47:46;;;;;;;7.57;6.97;;;14.70;29.80;;;;;;5242419;27;20492;-68
2024/04/23 12:50:13;;;;;;;7.60;6.90;;;14.40;29.70;;;;;;5244081;27;20225;-68
2024/04/23 12:52:39;;;;;;;8.07;7.37;;;14.60;29.70;;;;;;5244099;27;20278;-69
2024/04/23 12:55:05;;;;;;;6.90;6.40;;;15.50;29.00;;;;;;5244550;27;21040;-69
2024/04/23 12:57:30;;;;;;;7.23;6.63;;;15.20;28.90;;;;;;5244433;27;20216;-67